createdAt,value
2023-04-18T00:07:10.277Z,100.00
2023-04-18T00:09:38.502Z,100.00
2023-04-18T00:15:50.721Z,100.00
2023-04-18T00:18:18.372Z,100.00
2023-04-18T00:20:47.155Z,100.00
2023-04-18T00:23:15.595Z,100.00
2023-04-18T00:25:44.562Z,100.00
2023-04-18T00:28:12.752Z,100.00
2023-04-18T00:30:41.053Z,100.00
2023-04-18T00:33:12.366Z,100.00
2023-04-18T00:35:40.590Z,100.00
2023-04-18T00:38:09.304Z,100.00
2023-04-18T00:40:41.890Z,100.00
2023-04-18T00:43:10.188Z,100.00
2023-04-18T00:45:41.298Z,100.00
2023-04-18T00:48:10.094Z,100.00
2023-04-18T00:50:38.823Z,100.00
2023-04-18T00:53:10.869Z,100.00
2023-04-18T00:55:38.934Z,100.00
2023-04-18T00:58:07.060Z,100.00
2023-04-18T01:00:34.757Z,100.00
2023-04-18T01:03:03.120Z,100.00
2023-04-18T01:05:31.888Z,100.00
2023-04-18T01:08:01.686Z,100.00
2023-04-18T01:10:30.151Z,100.00
2023-04-18T01:13:18.129Z,100.00
2023-04-18T01:15:46.936Z,100.00
2023-04-18T01:18:18.597Z,100.00
2023-04-18T01:20:48.514Z,100.00
2023-04-18T01:23:17.160Z,100.00
2023-04-18T01:25:45.294Z,100.00
2023-04-18T01:28:14.397Z,100.00
2023-04-18T01:30:42.424Z,100.00
2023-04-18T01:33:10.348Z,100.00
2023-04-18T01:35:38.768Z,100.00
2023-04-18T01:38:06.536Z,100.00
2023-04-18T01:40:34.684Z,100.00
2023-04-18T01:43:02.965Z,100.00
2023-04-18T01:45:30.737Z,100.00
2023-04-18T01:48:25.615Z,100.00
2023-04-18T01:51:03.121Z,100.00
2023-04-18T01:53:32.610Z,100.00
2023-04-18T01:56:05.625Z,100.00
2023-04-18T01:58:33.525Z,100.00
2023-04-18T02:01:01.121Z,100.00
2023-04-18T02:03:29.117Z,100.00
2023-04-18T02:05:57.250Z,100.00
2023-04-18T02:08:28.475Z,100.00
2023-04-18T02:10:55.871Z,100.00
2023-04-18T02:13:23.049Z,100.00
2023-04-18T02:15:50.353Z,100.00
2023-04-18T02:18:18.784Z,100.00
2023-04-18T02:20:46.904Z,100.00
2023-04-18T02:23:14.927Z,100.00
2023-04-18T02:25:43.029Z,100.00
2023-04-18T02:28:11.244Z,100.00
2023-04-18T02:30:39.184Z,100.00
2023-04-18T02:33:07.266Z,100.00
2023-04-18T02:35:36.122Z,100.00
2023-04-18T02:38:04.258Z,100.00
2023-04-18T02:40:32.437Z,100.00
2023-04-18T02:43:00.560Z,100.00
2023-04-18T02:45:31.933Z,100.00
2023-04-18T02:48:02.221Z,100.00
2023-04-18T02:50:53.780Z,100.00
2023-04-18T02:53:24.545Z,100.00
2023-04-18T02:56:33.591Z,100.00
2023-04-18T02:59:16.472Z,100.00
2023-04-18T03:06:10.971Z,100.00
2023-04-18T03:06:31.937Z,100.00
2023-04-18T03:08:39.503Z,100.00
2023-04-18T03:11:08.311Z,100.00
2023-04-18T03:13:36.929Z,100.00
2023-04-18T03:16:05.826Z,100.00
2023-04-18T03:18:34.483Z,100.00
2023-04-18T03:21:03.031Z,100.00
2023-04-18T03:23:33.558Z,100.00
2023-04-18T03:26:05.865Z,100.00
2023-04-18T03:28:37.487Z,100.00
2023-04-18T03:31:06.030Z,100.00
2023-04-18T03:33:36.112Z,100.00
2023-04-18T03:36:09.133Z,100.00
2023-04-18T03:38:38.206Z,100.00
2023-04-18T03:41:06.478Z,100.00
2023-04-18T03:43:36.561Z,100.00
2023-04-18T03:46:05.084Z,100.00
2023-04-18T03:48:36.174Z,100.00
2023-04-18T03:51:08.968Z,100.00
2023-04-18T03:53:38.609Z,100.00
2023-04-18T03:59:57.756Z,100.00
2023-04-18T04:02:26.747Z,100.00
2023-04-18T04:04:54.923Z,100.00
2023-04-18T04:07:29.213Z,100.00
2023-04-18T04:13:42.424Z,100.00
2023-04-18T04:16:15.340Z,100.00
2023-04-18T04:18:50.959Z,100.00
2023-04-18T04:25:21.369Z,100.00
2023-04-18T04:27:58.921Z,100.00
2023-04-18T04:30:33.683Z,100.00
2023-04-18T04:33:02.203Z,100.00
2023-04-18T04:35:29.653Z,100.00
2023-04-18T04:37:57.148Z,100.00
2023-04-18T04:40:30.727Z,100.00
2023-04-18T04:43:15.851Z,100.00
2023-04-18T04:45:45.557Z,100.00
2023-04-18T04:48:12.836Z,100.00
2023-04-18T04:50:41.000Z,100.00
2023-04-18T04:53:08.422Z,100.00
2023-04-18T04:59:06.605Z,100.00
2023-04-18T05:01:37.372Z,100.00
2023-04-18T05:04:04.726Z,100.00
2023-04-18T05:06:32.092Z,100.00
2023-04-18T05:09:01.280Z,100.00
2023-04-18T05:11:28.469Z,100.00
2023-04-18T05:13:55.820Z,100.00
2023-04-18T05:16:29.766Z,100.00
2023-04-18T05:18:57.236Z,100.00
2023-04-18T05:21:26.409Z,100.00
2023-04-18T05:27:47.440Z,100.00
2023-04-18T05:30:15.003Z,100.00
2023-04-18T05:32:42.277Z,100.00
2023-04-18T05:35:09.730Z,100.00
2023-04-18T05:37:37.083Z,100.00
2023-04-18T05:40:05.445Z,100.00
2023-04-18T05:42:32.728Z,100.00
2023-04-18T05:45:00.299Z,100.00
2023-04-18T05:47:28.893Z,100.00
2023-04-18T05:49:56.581Z,100.00
2023-04-18T05:52:24.072Z,100.00
2023-04-18T05:54:51.228Z,100.00
2023-04-18T05:57:19.504Z,100.00
2023-04-18T05:59:46.836Z,100.00
2023-04-18T06:02:14.618Z,100.00
2023-04-18T06:04:42.687Z,100.00
2023-04-18T06:07:10.526Z,100.00
2023-04-18T06:09:37.915Z,100.00
2023-04-18T06:12:05.270Z,100.00
2023-04-18T06:14:32.607Z,100.00
2023-04-18T06:17:00.168Z,100.00
2023-04-18T06:19:27.337Z,100.00
2023-04-18T06:21:54.850Z,100.00
2023-04-18T06:24:22.223Z,100.00
2023-04-18T06:26:49.389Z,100.00
2023-04-18T06:29:18.326Z,100.00
2023-04-18T06:31:47.094Z,100.00
2023-04-18T06:34:14.531Z,100.00
2023-04-18T06:36:44.065Z,100.00
2023-04-18T06:39:11.329Z,100.00
2023-04-18T06:41:39.454Z,100.00
2023-04-18T06:44:06.752Z,100.00
2023-04-18T06:46:34.967Z,100.00
2023-04-18T06:49:06.085Z,100.00
2023-04-18T06:51:34.673Z,100.00
2023-04-18T06:54:02.171Z,100.00
2023-04-18T06:56:30.630Z,100.00
2023-04-18T06:58:58.429Z,100.00
2023-04-18T07:01:25.861Z,100.00
2023-04-18T07:03:53.151Z,100.00
2023-04-18T07:06:20.343Z,100.00
2023-04-18T07:08:47.619Z,100.00
2023-04-18T07:11:16.726Z,100.00
2023-04-18T07:13:56.891Z,100.00
2023-04-18T07:16:26.810Z,100.00
2023-04-18T07:18:53.927Z,100.00
2023-04-18T07:21:21.114Z,100.00
2023-04-18T07:23:48.301Z,100.00
2023-04-18T07:26:15.549Z,100.00
2023-04-18T07:28:43.018Z,100.00
2023-04-18T07:31:11.813Z,100.00
2023-04-18T07:33:39.108Z,100.00
2023-04-18T07:36:06.336Z,100.00
2023-04-18T07:38:35.677Z,100.00
2023-04-18T07:41:03.533Z,100.00
2023-04-18T07:43:30.815Z,100.00
2023-04-18T07:46:03.420Z,100.00
2023-04-18T07:48:30.674Z,100.00
2023-04-18T07:50:57.832Z,100.00
2023-04-18T07:53:24.971Z,100.00
2023-04-18T07:55:52.235Z,100.00
2023-04-18T07:58:20.538Z,100.00
2023-04-18T08:00:47.519Z,100.00
2023-04-18T08:03:14.881Z,100.00
2023-04-18T08:05:42.522Z,100.00
2023-04-18T08:08:10.591Z,100.00
2023-04-18T08:10:37.672Z,100.00
2023-04-18T08:13:05.001Z,100.00
2023-04-18T08:15:33.029Z,100.00
2023-04-18T08:18:04.054Z,100.00
2023-04-18T08:20:31.657Z,100.00
2023-04-18T08:23:07.527Z,100.00
2023-04-18T08:25:37.029Z,100.00
2023-04-18T08:28:04.577Z,100.00
2023-04-18T08:30:32.203Z,100.00
2023-04-18T08:33:00.766Z,100.00
2023-04-18T08:35:38.224Z,100.00
2023-04-18T08:38:05.691Z,100.00
2023-04-18T08:40:33.130Z,100.00
2023-04-18T08:43:02.459Z,100.00
2023-04-18T08:45:29.821Z,100.00
2023-04-18T08:47:59.186Z,100.00
2023-04-18T08:50:27.195Z,100.00
2023-04-18T08:52:55.312Z,100.00
2023-04-18T08:55:25.986Z,100.00
2023-04-18T08:57:56.300Z,100.00
2023-04-18T09:00:23.971Z,100.00
2023-04-18T09:02:56.934Z,100.00
2023-04-18T09:05:25.472Z,100.00
2023-04-18T09:07:57.155Z,100.00
2023-04-18T09:10:29.986Z,100.00
2023-04-18T09:12:58.954Z,100.00
2023-04-18T09:15:27.541Z,100.00
2023-04-18T09:17:56.590Z,100.00
2023-04-18T09:20:35.172Z,100.00
2023-04-18T09:23:04.167Z,100.00
2023-04-18T09:25:35.174Z,100.00
2023-04-18T09:28:02.984Z,100.00
2023-04-18T09:30:40.738Z,100.00
2023-04-18T09:33:12.846Z,100.00
2023-04-18T09:35:40.085Z,100.00
2023-04-18T09:42:12.345Z,100.00
2023-04-18T09:44:59.115Z,100.00
2023-04-18T09:47:30.128Z,100.00
2023-04-18T09:49:59.264Z,100.00
2023-04-18T09:52:26.428Z,100.00
2023-04-18T09:54:56.960Z,100.00
2023-04-18T09:57:27.338Z,100.00
2023-04-18T10:00:24.442Z,100.00
2023-04-18T10:02:58.880Z,100.00
2023-04-18T10:05:34.048Z,100.00
2023-04-18T10:08:01.283Z,100.00
2023-04-18T10:10:28.459Z,100.00
2023-04-18T10:13:01.669Z,100.00
2023-04-18T10:15:29.806Z,100.00
2023-04-18T10:18:05.435Z,100.00
2023-04-18T10:20:35.257Z,100.00
2023-04-18T10:23:21.613Z,100.00
2023-04-18T10:25:49.623Z,100.00
2023-04-18T10:28:17.950Z,100.00
2023-04-18T10:30:45.789Z,100.00
2023-04-18T10:33:31.980Z,100.00
2023-04-18T10:36:21.084Z,100.00
2023-04-18T10:38:49.806Z,100.00
2023-04-18T10:41:18.230Z,100.00
2023-04-18T10:44:04.287Z,100.00
2023-04-18T10:46:32.982Z,100.00
2023-04-18T10:49:18.507Z,100.00
2023-04-18T10:51:49.857Z,100.00
2023-04-18T10:54:24.466Z,100.00
2023-04-18T10:56:52.937Z,100.00
2023-04-18T10:59:22.193Z,100.00
2023-04-18T11:01:50.228Z,100.00
2023-04-18T11:04:18.558Z,100.00
2023-04-18T11:06:50.007Z,100.00
2023-04-18T11:09:18.636Z,100.00
2023-04-18T11:11:45.796Z,100.00
2023-04-18T11:14:15.724Z,100.00
2023-04-18T11:16:56.020Z,100.00
2023-04-18T11:19:25.756Z,100.00
2023-04-18T11:21:52.832Z,100.00
2023-04-18T11:24:24.535Z,100.00
2023-04-18T11:26:56.174Z,100.00
2023-04-18T11:29:23.805Z,100.00
2023-04-18T11:31:53.030Z,100.00
2023-04-18T11:34:22.529Z,100.00
2023-04-18T11:36:51.650Z,100.00
2023-04-18T11:39:24.795Z,100.00
2023-04-18T11:41:52.335Z,100.00
2023-04-18T11:44:30.710Z,100.00
2023-04-18T11:47:03.950Z,100.00
2023-04-18T11:49:33.652Z,100.00
2023-04-18T11:52:04.060Z,100.00
2023-04-18T11:54:41.931Z,100.00
2023-04-18T11:57:27.998Z,100.00
2023-04-18T11:59:58.297Z,100.00
2023-04-18T12:02:27.862Z,100.00
2023-04-18T12:04:57.514Z,100.00
2023-04-18T12:07:41.635Z,100.00
2023-04-18T12:10:29.882Z,100.00
2023-04-18T12:13:10.329Z,100.00
2023-04-18T12:15:47.223Z,100.00
2023-04-18T12:18:18.379Z,100.00
2023-04-18T12:20:54.751Z,100.00
2023-04-18T12:23:32.979Z,100.00
2023-04-18T12:26:04.172Z,100.00
2023-04-18T12:28:36.278Z,100.00
2023-04-18T12:31:06.148Z,100.00
2023-04-18T12:33:34.522Z,100.00
2023-04-18T12:36:03.118Z,100.00
2023-04-18T12:38:35.879Z,100.00
2023-04-18T12:41:04.794Z,100.00
2023-04-18T12:43:32.556Z,100.00
2023-04-18T12:46:00.981Z,100.00
2023-04-18T12:48:29.642Z,100.00
2023-04-18T12:50:59.394Z,100.00
2023-04-18T12:53:26.887Z,100.00
2023-04-18T12:55:53.970Z,100.00
2023-04-18T12:58:21.067Z,100.00
2023-04-18T13:00:49.181Z,100.00
2023-04-18T13:03:16.972Z,100.00
2023-04-18T13:05:45.348Z,100.00
2023-04-18T13:08:22.130Z,100.00
2023-04-18T13:10:57.792Z,100.00
2023-04-18T13:13:29.255Z,100.00
2023-04-18T13:16:04.814Z,100.00
2023-04-18T13:18:32.816Z,100.00
2023-04-18T13:21:00.298Z,100.00
2023-04-18T13:23:27.548Z,100.00
2023-04-18T13:25:54.578Z,100.00
2023-04-18T13:28:21.817Z,100.00
2023-04-18T13:30:48.819Z,100.00
2023-04-18T13:33:17.207Z,100.00
2023-04-18T13:35:44.360Z,100.00
2023-04-18T13:38:11.625Z,100.00
2023-04-18T13:40:39.066Z,100.00
2023-04-18T13:43:11.717Z,100.00
2023-04-18T13:45:38.963Z,100.00
2023-04-18T13:48:06.963Z,100.00
2023-04-18T13:50:34.218Z,100.00
2023-04-18T13:53:01.272Z,100.00
2023-04-18T13:55:28.753Z,100.00
2023-04-18T13:57:56.044Z,100.00
2023-04-18T14:00:23.076Z,100.00
2023-04-18T14:02:53.711Z,100.00
2023-04-18T14:05:21.208Z,100.00
2023-04-18T14:08:15.136Z,100.00
2023-04-18T14:11:07.855Z,100.00
2023-04-18T14:13:39.510Z,100.00
2023-04-18T14:16:16.985Z,100.00
2023-04-18T14:18:49.884Z,100.00
2023-04-18T14:21:19.126Z,100.00
2023-04-18T14:23:56.531Z,100.00
2023-04-18T14:26:24.567Z,100.00
2023-04-18T14:29:15.317Z,100.00
2023-04-18T14:31:57.211Z,100.00
2023-04-18T14:34:25.722Z,100.00
2023-04-18T14:37:10.654Z,100.00
2023-04-18T14:39:43.445Z,100.00
2023-04-18T14:42:13.027Z,100.00
2023-04-18T14:44:43.992Z,100.00
2023-04-18T14:47:12.568Z,100.00
2023-04-18T14:49:42.788Z,100.00
2023-04-18T14:52:10.740Z,100.00
2023-04-18T14:54:47.160Z,100.00
2023-04-18T14:57:14.933Z,91.76
2023-04-18T14:59:43.556Z,94.89
2023-04-18T15:02:12.170Z,100.00
2023-04-18T15:04:40.110Z,100.00
2023-04-18T15:07:07.663Z,96.73
2023-04-18T15:09:38.447Z,89.52
2023-04-18T15:12:06.645Z,91.25
2023-04-18T15:14:35.262Z,87.37
2023-04-18T15:17:06.448Z,90.77
2023-04-18T15:19:34.709Z,89.77
2023-04-18T15:22:06.043Z,100.00
2023-04-18T15:24:33.861Z,100.00
2023-04-18T15:27:04.841Z,97.40
2023-04-18T15:29:33.356Z,87.87
2023-04-18T15:32:03.971Z,96.00
2023-04-18T15:34:35.661Z,100.00
2023-04-18T15:37:09.124Z,85.59
2023-04-18T15:39:36.807Z,89.76
2023-04-18T15:42:05.543Z,85.21
2023-04-18T15:44:33.676Z,91.27
2023-04-18T15:47:04.433Z,100.00
2023-04-18T15:49:35.966Z,96.31
2023-04-18T15:52:04.315Z,93.26
2023-04-18T15:54:35.844Z,94.35
2023-04-18T15:57:03.648Z,93.10
2023-04-18T15:59:31.317Z,91.52
2023-04-18T16:01:58.922Z,100.00
2023-04-18T16:04:26.387Z,100.00
2023-04-18T16:10:29.745Z,100.00
2023-04-18T16:13:05.184Z,100.00
2023-04-18T16:15:41.968Z,100.00
2023-04-18T16:18:09.364Z,100.00
2023-04-18T16:20:37.420Z,100.00
2023-04-18T16:23:05.060Z,100.00
2023-04-18T16:25:33.515Z,100.00
2023-04-18T16:28:01.269Z,100.00
2023-04-18T16:30:28.888Z,100.00
2023-04-18T16:32:56.497Z,100.00
2023-04-18T16:35:24.894Z,100.00
2023-04-18T16:37:57.570Z,100.00
2023-04-18T16:40:31.434Z,100.00
2023-04-18T16:42:59.979Z,100.00
2023-04-18T16:45:27.782Z,100.00
2023-04-18T16:47:55.531Z,100.00
2023-04-18T16:50:23.529Z,100.00
2023-04-18T16:52:51.359Z,100.00
2023-04-18T16:55:19.466Z,100.00
2023-04-18T16:57:47.746Z,100.00
2023-04-18T17:00:17.286Z,100.00
2023-04-18T17:02:45.782Z,100.00
2023-04-18T17:05:20.919Z,100.00
2023-04-18T17:08:10.210Z,100.00
2023-04-18T17:10:40.948Z,100.00
2023-04-18T17:16:18.516Z,100.00
2023-04-18T17:18:45.872Z,100.00
2023-04-18T17:21:24.099Z,100.00
2023-04-18T17:23:58.145Z,100.00
2023-04-18T17:26:27.057Z,100.00
2023-04-18T17:28:54.346Z,100.00
2023-04-18T17:31:21.658Z,100.00
2023-04-18T17:33:51.178Z,100.00
2023-04-18T17:36:22.142Z,100.00
2023-04-18T17:38:58.552Z,100.00
2023-04-18T17:41:26.481Z,100.00
2023-04-18T17:43:53.867Z,100.00
2023-04-18T17:46:34.975Z,100.00
2023-04-18T17:49:07.101Z,100.00
2023-04-18T17:51:34.528Z,100.00
2023-04-18T17:54:02.213Z,100.00
2023-04-18T17:56:31.909Z,100.00
2023-04-18T17:59:02.610Z,100.00
2023-04-18T18:01:30.808Z,100.00
2023-04-18T18:03:59.311Z,100.00
2023-04-18T18:06:28.049Z,100.00
2023-04-18T18:08:55.120Z,100.00
2023-04-18T18:11:25.974Z,100.00
2023-04-18T18:14:07.133Z,100.00
2023-04-18T18:16:34.589Z,100.00
2023-04-18T18:19:01.719Z,100.00
2023-04-18T18:21:29.655Z,100.00
2023-04-18T18:23:56.825Z,100.00
2023-04-18T18:26:24.206Z,100.00
2023-04-18T18:28:58.956Z,100.00
2023-04-18T18:31:39.509Z,100.00
2023-04-18T18:34:06.860Z,100.00
2023-04-18T18:36:34.132Z,100.00
2023-04-18T18:39:01.155Z,100.00
2023-04-18T18:41:28.277Z,100.00
2023-04-18T18:43:56.731Z,100.00
2023-04-18T18:46:23.677Z,100.00
2023-04-18T18:48:52.571Z,100.00
2023-04-18T18:51:21.403Z,100.00
2023-04-18T18:53:48.881Z,100.00
2023-04-18T18:56:19.524Z,100.00
2023-04-18T18:58:49.550Z,100.00
2023-04-18T19:01:16.569Z,100.00
2023-04-18T19:03:44.018Z,100.00
2023-04-18T19:06:11.254Z,100.00
2023-04-18T19:08:40.535Z,100.00
2023-04-18T19:11:08.646Z,100.00
2023-04-18T19:13:35.788Z,100.00
2023-04-18T19:16:03.879Z,100.00
2023-04-18T19:18:31.897Z,100.00
2023-04-18T19:20:59.053Z,100.00
2023-04-18T19:23:29.184Z,100.00
2023-04-18T19:25:58.301Z,100.00
2023-04-18T19:28:26.285Z,100.00
2023-04-18T19:30:53.594Z,100.00
2023-04-18T19:33:21.504Z,100.00
2023-04-18T19:35:48.486Z,100.00
2023-04-18T19:38:15.705Z,100.00
2023-04-18T19:40:42.813Z,100.00
2023-04-18T19:43:10.804Z,100.00
2023-04-18T19:45:38.764Z,100.00
2023-04-18T19:48:06.014Z,100.00
2023-04-18T19:50:34.597Z,100.00
2023-04-18T19:53:02.002Z,100.00
2023-04-18T19:55:28.962Z,100.00
2023-04-18T19:57:58.769Z,100.00
2023-04-18T20:00:26.412Z,100.00
2023-04-18T20:02:54.758Z,100.00
2023-04-18T20:05:22.111Z,100.00
2023-04-18T20:07:49.391Z,100.00
2023-04-18T20:10:16.493Z,100.00
2023-04-18T20:12:43.939Z,100.00
2023-04-18T20:15:11.099Z,100.00
2023-04-18T20:17:42.702Z,100.00
2023-04-18T20:20:11.473Z,100.00
2023-04-18T20:22:40.554Z,100.00
2023-04-18T20:25:10.767Z,100.00
2023-04-18T20:27:38.446Z,100.00
2023-04-18T20:30:06.017Z,100.00
2023-04-18T20:32:35.735Z,100.00
2023-04-18T20:35:03.244Z,100.00
2023-04-18T20:37:31.244Z,100.00
2023-04-18T20:39:59.053Z,100.00
2023-04-18T20:42:26.786Z,100.00
2023-04-18T20:44:55.029Z,100.00
2023-04-18T20:47:25.261Z,100.00
2023-04-18T20:50:03.781Z,100.00
2023-04-18T20:52:31.405Z,100.00
2023-04-18T20:55:03.591Z,100.00
2023-04-18T20:57:43.993Z,100.00
2023-04-18T21:00:14.502Z,100.00
2023-04-18T21:02:42.774Z,100.00
2023-04-18T21:05:16.999Z,100.00
2023-04-18T21:07:45.856Z,100.00
2023-04-18T21:10:18.953Z,100.00
2023-04-18T21:12:53.507Z,100.00
2023-04-18T21:15:25.171Z,100.00
2023-04-18T21:17:53.012Z,100.00
2023-04-18T21:20:20.596Z,100.00
2023-04-18T21:22:58.090Z,100.00
2023-04-18T21:25:29.433Z,100.00
2023-04-18T21:27:57.153Z,100.00
2023-04-18T21:30:25.340Z,100.00
2023-04-18T21:32:52.879Z,100.00
2023-04-18T21:35:21.916Z,100.00
2023-04-18T21:37:50.869Z,100.00
2023-04-18T21:40:18.787Z,100.00
2023-04-18T21:42:47.759Z,100.00
2023-04-18T21:45:16.735Z,100.00
2023-04-18T21:47:45.665Z,100.00
2023-04-18T21:50:14.323Z,100.00
2023-04-18T21:52:48.723Z,100.00
2023-04-18T21:55:16.940Z,100.00
2023-04-18T21:57:44.452Z,100.00
2023-04-18T22:00:13.087Z,100.00
2023-04-18T22:02:43.039Z,100.00
2023-04-18T22:05:13.188Z,100.00
2023-04-18T22:07:54.406Z,100.00
2023-04-18T22:10:25.312Z,100.00
2023-04-18T22:12:55.280Z,100.00
2023-04-18T22:15:22.914Z,100.00
2023-04-18T22:17:51.132Z,100.00
2023-04-18T22:20:19.863Z,100.00
2023-04-18T22:22:47.065Z,100.00
2023-04-18T22:25:14.698Z,100.00
2023-04-18T22:27:43.385Z,100.00
2023-04-18T22:30:10.652Z,100.00
2023-04-18T22:32:38.106Z,100.00
2023-04-18T22:35:05.600Z,100.00
2023-04-18T22:37:32.852Z,100.00
2023-04-18T22:39:59.892Z,100.00
2023-04-18T22:42:27.576Z,100.00
2023-04-18T22:44:55.763Z,100.00
2023-04-18T22:47:22.982Z,100.00
2023-04-18T22:49:50.075Z,100.00
2023-04-18T22:52:17.255Z,100.00
2023-04-18T22:54:44.653Z,100.00
2023-04-18T22:57:11.932Z,100.00
2023-04-18T22:59:39.304Z,100.00
2023-04-18T23:02:06.538Z,100.00
2023-04-18T23:04:34.585Z,100.00
2023-04-18T23:07:02.467Z,100.00
2023-04-18T23:09:31.508Z,100.00
2023-04-18T23:12:02.841Z,100.00
2023-04-18T23:14:30.188Z,100.00
2023-04-18T23:16:58.192Z,100.00
2023-04-18T23:19:29.889Z,100.00
2023-04-18T23:21:57.511Z,100.00
2023-04-18T23:24:24.552Z,100.00
2023-04-18T23:26:51.853Z,100.00
2023-04-18T23:29:19.082Z,100.00
2023-04-18T23:31:46.197Z,100.00
2023-04-18T23:34:13.743Z,100.00
2023-04-18T23:36:41.232Z,100.00
2023-04-18T23:39:08.879Z,100.00
2023-04-18T23:41:36.070Z,100.00
2023-04-18T23:44:03.188Z,100.00
2023-04-18T23:46:30.430Z,100.00
2023-04-18T23:48:58.453Z,100.00
2023-04-18T23:51:26.483Z,100.00
2023-04-18T23:53:53.464Z,100.00
2023-04-18T23:56:20.723Z,100.00
2023-04-18T23:58:47.902Z,100.00
